Time;durP1;ratioP1;P1;durP2;ratioP2;P2;SDS_P1;SDS_P2;PMS_P1;PMS_P2;Temp;Humidity;BMP_temperature;BMP_pressure;BME280_temperature;BME280_humidity;BME280_pressure;Samples;Min_cycle;Max_cycle;Signal;HPM_P1;HPM_P2
2021/08/21 00:00:28;;;;;;;22.73;7.50;;;;;;;;;;5086735;28;20033;-78
2021/08/21 00:02:54;;;;;;;14.07;7.80;;;;;;;;;;5103672;28;20036;-78
2021/08/21 00:05:19;;;;;;;13.05;8.48;;;;;;;;;;5102908;28;20073;-78
2021/08/21 00:07:46;;;;;;;14.70;8.75;;;;;;;;;;5104204;28;20043;-78
2021/08/21 00:10:12;;;;;;;32.03;8.43;;;;;;;;;;5102608;28;20047;-78
2021/08/21 00:12:38;;;;;;;19.17;8.93;;;;;;;;;;5102116;28;20023;-78
2021/08/21 00:15:06;;;;;;;28.02;9.80;;;;;;;;;;5085176;28;20063;-78
2021/08/21 00:17:31;;;;;;;17.05;10.40;;;;;;;;;;5102083;28;20040;-78
2021/08/21 00:19:57;;;;;;;26.10;10.25;;;;;;;;;;5085942;28;20032;-78
2021/08/21 00:22:23;;;;;;;23.70;10.27;;;;;;;;;;5084250;28;20067;-78
2021/08/21 00:24:48;;;;;;;15.25;9.70;;;;;;;;;;5100843;28;20043;-78
2021/08/21 00:27:13;;;;;;;13.05;9.55;;;;;;;;;;5084088;28;20038;-78
2021/08/21 00:29:39;;;;;;;13.07;9.88;;;;;;;;;;5101372;28;20036;-78
2021/08/21 00:32:05;;;;;;;18.63;10.05;;;;;;;;;;5100233;28;20039;-78
2021/08/21 00:34:31;;;;;;;14.05;9.32;;;;;;;;;;5101054;28;20214;-78
2021/08/21 00:36:57;;;;;;;24.92;9.75;;;;;;;;;;5083152;28;20493;-78
2021/08/21 00:39:23;;;;;;;11.57;9.40;;;;;;;;;;5098951;28;20036;-78
2021/08/21 00:41:48;;;;;;;17.55;9.93;;;;;;;;;;5082083;28;20064;-78
2021/08/21 00:44:14;;;;;;;20.25;10.52;;;;;;;;;;5081647;28;20075;-78
2021/08/21 00:47:02;;;;;;;31.02;11.95;;;;;;;;;;5098650;28;20400;-78
2021/08/21 00:49:28;;;;;;;24.70;11.88;;;;;;;;;;5098251;28;20032;-78
2021/08/21 00:51:55;;;;;;;13.15;9.95;;;;;;;;;;5098329;28;20512;-78
2021/08/21 00:54:20;;;;;;;13.90;10.00;;;;;;;;;;5076793;28;20028;-78
2021/08/21 00:56:47;;;;;;;14.07;8.75;;;;;;;;;;5097275;28;20032;-78
2021/08/21 00:59:14;;;;;;;12.23;8.75;;;;;;;;;;5097802;28;20038;-78
2021/08/21 01:01:40;;;;;;;12.35;9.13;;;;;;;;;;5080315;28;20110;-78
2021/08/21 01:04:05;;;;;;;14.70;8.82;;;;;;;;;;5097095;28;20445;-78
2021/08/21 01:06:31;;;;;;;21.30;9.13;;;;;;;;;;5080087;28;20035;-78
2021/08/21 01:08:56;;;;;;;11.07;9.27;;;;;;;;;;5096832;28;20084;-78
2021/08/21 01:11:22;;;;;;;10.57;8.70;;;;;;;;;;5079169;28;20036;-78
2021/08/21 01:13:47;;;;;;;13.50;8.63;;;;;;;;;;5095821;28;20031;-78
2021/08/21 01:16:15;;;;;;;12.45;8.80;;;;;;;;;;5081761;28;20123;-78
2021/08/21 01:18:42;;;;;;;17.55;9.10;;;;;;;;;;5083112;28;20035;-78
2021/08/21 01:21:08;;;;;;;33.45;8.35;;;;;;;;;;5083377;28;20039;-78
2021/08/21 01:23:33;;;;;;;10.13;8.68;;;;;;;;;;5088043;28;20477;-78
2021/08/21 01:26:01;;;;;;;12.65;8.45;;;;;;;;;;5103882;28;20023;-78
2021/08/21 01:28:34;;;;;;;9.65;8.23;;;;;;;;;;5104600;28;20039;-78
2021/08/21 01:31:17;;;;;;;16.45;8.85;;;;;;;;;;5121805;28;20104;-78
2021/08/21 01:33:44;;;;;;;12.15;7.75;;;;;;;;;;5103205;28;20046;-78
2021/08/21 01:36:09;;;;;;;10.35;8.25;;;;;;;;;;5103891;28;20036;-78
2021/08/21 01:39:01;;;;;;;16.00;7.65;;;;;;;;;;5104055;28;20039;-78
2021/08/21 01:41:42;;;;;;;9.00;7.63;;;;;;;;;;5120705;28;20115;-78
2021/08/21 01:44:14;;;;;;;15.85;7.93;;;;;;;;;;5120663;28;20043;-78
2021/08/21 01:46:42;;;;;;;18.88;8.18;;;;;;;;;;5121296;28;20070;-78
2021/08/21 01:49:11;;;;;;;11.73;7.82;;;;;;;;;;5102745;28;20032;-78
2021/08/21 01:51:39;;;;;;;13.45;8.27;;;;;;;;;;5103499;28;20031;-78
2021/08/21 01:54:04;;;;;;;26.13;8.25;;;;;;;;;;5084718;28;20036;-78
2021/08/21 01:56:50;;;;;;;31.48;8.80;;;;;;;;;;5079337;28;20071;-78
2021/08/21 01:59:48;;;;;;;12.35;8.38;;;;;;;;;;5061588;28;20071;-78
2021/08/21 02:02:22;;;;;;;34.42;9.60;;;;;;;;;;5079573;28;20490;-78
2021/08/21 02:04:59;;;;;;;21.50;8.73;;;;;;;;;;5079400;28;20040;-78
2021/08/21 02:07:25;;;;;;;11.38;9.02;;;;;;;;;;5062594;28;20041;-78
2021/08/21 02:09:50;;;;;;;12.52;9.32;;;;;;;;;;5062276;28;20035;-78
2021/08/21 02:12:17;;;;;;;11.27;8.70;;;;;;;;;;5062229;28;20032;-78
2021/08/21 02:14:50;;;;;;;127.22;10.10;;;;;;;;;;5064251;28;20052;-78
2021/08/21 02:17:16;;;;;;;16.98;6.65;;;;;;;;;;5079549;28;20478;-78
2021/08/21 02:19:56;;;;;;;8.65;6.75;;;;;;;;;;5079739;28;20191;-78
2021/08/21 02:22:21;;;;;;;9.48;7.95;;;;;;;;;;5080359;28;20064;-78
2021/08/21 02:24:52;;;;;;;13.63;7.22;;;;;;;;;;5082952;28;20501;-78
2021/08/21 02:27:24;;;;;;;9.82;8.13;;;;;;;;;;5084393;28;20036;-79
2021/08/21 02:29:50;;;;;;;9.20;7.43;;;;;;;;;;5063548;28;20545;-78
2021/08/21 02:32:16;;;;;;;11.57;8.32;;;;;;;;;;5063305;28;20452;-78
2021/08/21 02:34:42;;;;;;;10.38;8.20;;;;;;;;;;5063082;28;20124;-78
2021/08/21 02:37:07;;;;;;;8.35;7.25;;;;;;;;;;5063024;28;20060;-78
2021/08/21 02:39:35;;;;;;;8.50;7.60;;;;;;;;;;5062722;28;20501;-78
2021/08/21 02:42:00;;;;;;;12.77;8.15;;;;;;;;;;5079231;28;20040;-79
2021/08/21 02:44:25;;;;;;;9.23;7.60;;;;;;;;;;5079368;28;20119;-78
2021/08/21 02:46:51;;;;;;;8.60;7.43;;;;;;;;;;5063046;28;20041;-79
2021/08/21 02:49:17;;;;;;;11.23;7.78;;;;;;;;;;5062477;28;20047;-79
2021/08/21 02:51:42;;;;;;;7.88;7.07;;;;;;;;;;5063520;28;20035;-79
2021/08/21 02:54:08;;;;;;;11.70;7.22;;;;;;;;;;5063632;28;20085;-78
2021/08/21 02:56:34;;;;;;;11.05;7.13;;;;;;;;;;5081084;28;20044;-79
2021/08/21 02:59:00;;;;;;;10.20;8.20;;;;;;;;;;5063452;28;20077;-79
2021/08/21 03:01:26;;;;;;;9.60;7.88;;;;;;;;;;5063785;28;20120;-79
2021/08/21 03:03:52;;;;;;;10.00;8.73;;;;;;;;;;5064781;28;20029;-78
2021/08/21 03:06:18;;;;;;;11.23;9.20;;;;;;;;;;5063618;28;20036;-78
2021/08/21 03:08:43;;;;;;;12.63;8.30;;;;;;;;;;5062098;28;20032;-78
2021/08/21 03:11:10;;;;;;;10.02;8.55;;;;;;;;;;5062215;28;20594;-78
2021/08/21 03:13:56;;;;;;;13.57;8.20;;;;;;;;;;5079617;28;20032;-79
2021/08/21 03:16:22;;;;;;;10.07;8.50;;;;;;;;;;5062831;28;20478;-79
2021/08/21 03:18:47;;;;;;;23.42;8.98;;;;;;;;;;5064443;28;20051;-78
2021/08/21 03:21:15;;;;;;;14.45;9.13;;;;;;;;;;5081179;28;20556;-79
2021/08/21 03:23:41;;;;;;;9.15;8.15;;;;;;;;;;5069322;28;20397;-78
2021/08/21 03:26:07;;;;;;;46.05;8.73;;;;;;;;;;5084078;28;20032;-79
2021/08/21 03:28:36;;;;;;;11.93;8.25;;;;;;;;;;5084258;28;20386;-78
2021/08/21 03:31:02;;;;;;;11.20;8.50;;;;;;;;;;5084731;28;20039;-79
2021/08/21 03:33:27;;;;;;;11.63;9.00;;;;;;;;;;5100526;28;20032;-79
2021/08/21 03:35:53;;;;;;;11.68;8.98;;;;;;;;;;5100452;28;20036;-79
2021/08/21 03:38:19;;;;;;;21.35;9.25;;;;;;;;;;5081778;28;20035;-79
2021/08/21 03:40:57;;;;;;;10.00;8.77;;;;;;;;;;5085209;28;20028;-79
2021/08/21 03:43:23;;;;;;;14.07;9.13;;;;;;;;;;5083576;28;20040;-79
2021/08/21 03:45:49;;;;;;;10.55;8.98;;;;;;;;;;5082601;28;20533;-79
2021/08/21 03:48:16;;;;;;;9.52;8.05;;;;;;;;;;5083009;28;20541;-78
2021/08/21 03:50:42;;;;;;;13.02;8.63;;;;;;;;;;5082357;28;20143;-78
2021/08/21 03:53:07;;;;;;;11.23;8.63;;;;;;;;;;5100335;28;20024;-79
2021/08/21 03:55:38;;;;;;;12.05;8.80;;;;;;;;;;5103408;28;20032;-79
2021/08/21 03:58:06;;;;;;;13.38;8.63;;;;;;;;;;5102475;28;20125;-79
2021/08/21 04:00:33;;;;;;;11.70;8.52;;;;;;;;;;5102765;28;20057;-79
2021/08/21 04:03:08;;;;;;;10.25;8.57;;;;;;;;;;5119348;28;20118;-80
2021/08/21 04:05:36;;;;;;;15.68;9.18;;;;;;;;;;5103492;28;20027;-79
2021/08/21 04:08:02;;;;;;;17.58;8.75;;;;;;;;;;5101833;28;20042;-79
2021/08/21 04:10:28;;;;;;;12.75;8.75;;;;;;;;;;5102425;28;20110;-78
2021/08/21 04:12:57;;;;;;;9.70;8.10;;;;;;;;;;5102587;28;20035;-79
2021/08/21 04:15:23;;;;;;;18.20;9.68;;;;;;;;;;5101370;28;20028;-79
2021/08/21 04:17:48;;;;;;;9.82;8.50;;;;;;;;;;5114179;28;20035;-79
2021/08/21 04:20:15;;;;;;;22.10;8.88;;;;;;;;;;5082483;28;20478;-78
2021/08/21 04:22:41;;;;;;;12.73;8.52;;;;;;;;;;5081468;28;20032;-79
2021/08/21 04:25:07;;;;;;;27.67;8.70;;;;;;;;;;5067798;28;20294;-79
2021/08/21 04:27:34;;;;;;;12.55;8.00;;;;;;;;;;5062407;28;20039;-79
2021/08/21 04:30:00;;;;;;;9.20;7.85;;;;;;;;;;5078304;28;20068;-79
2021/08/21 04:32:25;;;;;;;11.90;8.65;;;;;;;;;;5080022;28;20097;-79
2021/08/21 04:34:52;;;;;;;22.60;8.75;;;;;;;;;;5062881;28;20083;-79
2021/08/21 04:37:18;;;;;;;21.70;8.45;;;;;;;;;;5079247;28;20033;-79
2021/08/21 04:39:43;;;;;;;14.15;8.45;;;;;;;;;;5062848;28;20036;-79
2021/08/21 04:42:13;;;;;;;9.50;8.20;;;;;;;;;;5062821;28;20056;-79
2021/08/21 04:44:39;;;;;;;11.35;8.98;;;;;;;;;;5079584;28;20029;-79
2021/08/21 04:47:08;;;;;;;11.23;8.50;;;;;;;;;;5062337;28;20025;-79
2021/08/21 04:49:34;;;;;;;10.57;8.55;;;;;;;;;;5063426;28;20056;-79
2021/08/21 04:51:59;;;;;;;12.07;8.57;;;;;;;;;;5066496;28;20089;-79
2021/08/21 04:54:25;;;;;;;9.40;8.13;;;;;;;;;;5077575;28;20040;-79
2021/08/21 04:56:50;;;;;;;9.82;8.25;;;;;;;;;;5104765;28;20054;-79
2021/08/21 04:59:24;;;;;;;78.53;9.98;;;;;;;;;;5088692;28;20028;-79
2021/08/21 05:01:54;;;;;;;89.95;10.00;;;;;;;;;;5087548;28;20581;-79
2021/08/21 05:04:20;;;;;;;22.17;9.05;;;;;;;;;;5087028;28;20039;-79
2021/08/21 05:06:47;;;;;;;101.25;9.75;;;;;;;;;;5087598;28;20036;-79
2021/08/21 05:09:13;;;;;;;17.40;7.95;;;;;;;;;;5086742;28;20081;-79
2021/08/21 05:11:39;;;;;;;19.75;8.50;;;;;;;;;;5086943;28;20095;-79
2021/08/21 05:14:05;;;;;;;11.95;8.55;;;;;;;;;;5103261;28;20511;-79
2021/08/21 05:16:30;;;;;;;10.65;8.25;;;;;;;;;;5086959;28;20036;-79
2021/08/21 05:21:52;;;;;;;20.77;9.18;;;;;;;;;;5103544;28;20085;-79
2021/08/21 05:24:18;;;;;;;17.08;8.70;;;;;;;;;;5088908;28;20027;-79
2021/08/21 05:26:47;;;;;;;16.50;9.02;;;;;;;;;;5071886;28;20032;-79
2021/08/21 05:29:14;;;;;;;11.18;8.80;;;;;;;;;;5070160;28;20043;-79
2021/08/21 05:31:39;;;;;;;11.98;8.23;;;;;;;;;;5087326;28;20028;-79
2021/08/21 05:34:04;;;;;;;9.57;7.40;;;;;;;;;;5085561;28;20055;-79
2021/08/21 05:36:30;;;;;;;42.17;8.07;;;;;;;;;;5069730;28;20037;-79
2021/08/21 05:38:57;;;;;;;9.57;7.63;;;;;;;;;;5068756;28;20039;-79
2021/08/21 05:41:22;;;;;;;19.77;8.48;;;;;;;;;;5068138;28;20068;-79
2021/08/21 05:43:48;;;;;;;11.48;7.68;;;;;;;;;;5069181;28;20040;-79
2021/08/21 05:46:13;;;;;;;8.75;7.85;;;;;;;;;;5068720;28;20073;-79
2021/08/21 05:48:38;;;;;;;11.02;8.80;;;;;;;;;;5085780;28;20029;-79
2021/08/21 05:51:04;;;;;;;23.95;7.20;;;;;;;;;;5067465;28;20036;-79
2021/08/21 05:53:29;;;;;;;12.45;7.88;;;;;;;;;;5084570;28;20108;-79
2021/08/21 05:55:54;;;;;;;8.27;7.35;;;;;;;;;;5105812;28;20027;-78
2021/08/21 05:58:20;;;;;;;8.15;7.15;;;;;;;;;;5108427;28;20071;-79
2021/08/21 06:00:47;;;;;;;10.25;7.80;;;;;;;;;;5093126;28;20032;-79
2021/08/21 06:03:15;;;;;;;11.20;7.57;;;;;;;;;;5086669;28;20085;-79
2021/08/21 06:05:41;;;;;;;11.65;8.40;;;;;;;;;;5104325;28;20036;-79
2021/08/21 06:08:07;;;;;;;13.98;6.72;;;;;;;;;;5104976;28;20374;-79
2021/08/21 06:10:35;;;;;;;7.47;6.45;;;;;;;;;;5104760;28;20023;-79
2021/08/21 06:13:01;;;;;;;22.63;7.50;;;;;;;;;;5088359;28;20054;-79
2021/08/21 06:15:27;;;;;;;10.05;6.88;;;;;;;;;;5086737;28;20465;-78
2021/08/21 06:17:52;;;;;;;12.00;6.90;;;;;;;;;;5104459;28;20375;-79
2021/08/21 06:20:18;;;;;;;10.50;7.13;;;;;;;;;;5103315;28;20036;-79
2021/08/21 06:22:43;;;;;;;8.65;6.75;;;;;;;;;;5087094;28;20119;-79
2021/08/21 06:25:09;;;;;;;8.95;6.97;;;;;;;;;;5103352;28;20036;-79
2021/08/21 06:27:36;;;;;;;13.60;7.63;;;;;;;;;;5086823;28;20447;-79
2021/08/21 06:30:05;;;;;;;8.52;6.80;;;;;;;;;;5086547;28;20192;-78
2021/08/21 06:32:30;;;;;;;8.82;7.18;;;;;;;;;;5086919;28;20046;-79
2021/08/21 06:34:56;;;;;;;8.35;7.30;;;;;;;;;;5086273;28;20400;-79
2021/08/21 06:37:21;;;;;;;19.63;7.25;;;;;;;;;;5086553;28;20036;-78
2021/08/21 06:39:48;;;;;;;11.10;7.20;;;;;;;;;;5103283;28;20040;-79
2021/08/21 06:42:13;;;;;;;9.73;6.45;;;;;;;;;;5085571;28;20043;-79
2021/08/21 06:44:48;;;;;;;61.00;6.70;;;;;;;;;;5103641;28;20032;-79
2021/08/21 06:47:13;;;;;;;77.40;7.15;;;;;;;;;;5086667;28;20036;-79
2021/08/21 06:49:39;;;;;;;7.53;5.95;;;;;;;;;;5088023;28;20042;-78
2021/08/21 06:52:04;;;;;;;6.13;5.53;;;;;;;;;;5090224;28;20028;-79
2021/08/21 06:54:30;;;;;;;29.08;7.15;;;;;;;;;;5126155;28;20046;-79
2021/08/21 06:56:56;;;;;;;10.07;6.45;;;;;;;;;;5109687;28;20030;-79
2021/08/21 06:59:21;;;;;;;55.55;7.07;;;;;;;;;;5127430;28;20040;-79
2021/08/21 07:01:48;;;;;;;31.42;5.82;;;;;;;;;;5110361;28;20032;-79
2021/08/21 07:04:14;;;;;;;7.63;5.50;;;;;;;;;;5127973;28;20042;-79
2021/08/21 07:06:41;;;;;;;5.18;4.68;;;;;;;;;;5111028;28;20130;-79
2021/08/21 07:09:06;;;;;;;7.68;6.43;;;;;;;;;;5111173;28;20035;-79
2021/08/21 07:11:32;;;;;;;43.60;6.30;;;;;;;;;;5127784;28;20036;-79
2021/08/21 07:13:57;;;;;;;7.65;5.18;;;;;;;;;;5110783;28;20035;-79
2021/08/21 07:16:23;;;;;;;17.55;5.07;;;;;;;;;;5129120;28;20072;-79
2021/08/21 07:18:49;;;;;;;14.38;6.13;;;;;;;;;;5111346;28;20093;-79
2021/08/21 07:21:15;;;;;;;15.23;5.75;;;;;;;;;;5111107;28;20408;-79
2021/08/21 07:23:41;;;;;;;8.25;5.60;;;;;;;;;;5103103;28;20036;-79
2021/08/21 07:26:07;;;;;;;43.40;7.28;;;;;;;;;;5108789;28;20046;-79
2021/08/21 07:28:33;;;;;;;7.03;6.03;;;;;;;;;;5107954;28;20035;-79
2021/08/21 07:30:58;;;;;;;41.75;6.88;;;;;;;;;;5108958;28;20075;-79
2021/08/21 07:33:24;;;;;;;14.73;6.88;;;;;;;;;;5092302;28;20039;-79
2021/08/21 07:35:49;;;;;;;15.52;7.35;;;;;;;;;;5092352;28;20568;-79
2021/08/21 07:38:15;;;;;;;11.02;8.40;;;;;;;;;;5091910;28;20072;-79
2021/08/21 07:40:41;;;;;;;9.63;7.70;;;;;;;;;;5093213;28;20040;-79
2021/08/21 07:43:07;;;;;;;9.35;7.50;;;;;;;;;;5092423;28;20052;-79
2021/08/21 07:45:34;;;;;;;7.97;6.55;;;;;;;;;;5094235;28;20043;-79
2021/08/21 07:47:59;;;;;;;8.80;7.22;;;;;;;;;;5092377;28;20058;-79
2021/08/21 07:50:24;;;;;;;26.67;12.10;;;;;;;;;;5110162;28;20032;-79
2021/08/21 07:52:50;;;;;;;12.50;8.95;;;;;;;;;;5092505;28;20036;-79
2021/08/21 07:55:16;;;;;;;9.45;7.80;;;;;;;;;;5110045;28;20582;-79
2021/08/21 07:57:41;;;;;;;11.82;8.88;;;;;;;;;;5129197;28;20101;-80
2021/08/21 08:00:07;;;;;;;13.88;9.18;;;;;;;;;;5129170;28;20434;-80
2021/08/21 08:02:42;;;;;;;13.90;9.15;;;;;;;;;;5129720;28;20035;-80
2021/08/21 08:05:08;;;;;;;11.48;8.68;;;;;;;;;;5113332;28;20038;-80
2021/08/21 08:07:34;;;;;;;8.50;7.32;;;;;;;;;;5130376;28;20040;-80
2021/08/21 08:09:59;;;;;;;11.23;8.07;;;;;;;;;;5111022;28;20043;-80
2021/08/21 08:12:25;;;;;;;8.20;6.32;;;;;;;;;;5129064;28;20106;-80
2021/08/21 08:14:50;;;;;;;14.95;7.63;;;;;;;;;;5111889;28;20069;-80
2021/08/21 08:17:15;;;;;;;6.32;5.63;;;;;;;;;;5110799;28;20042;-80
2021/08/21 08:19:41;;;;;;;6.90;5.07;;;;;;;;;;5111748;28;20063;-80
2021/08/21 08:22:07;;;;;;;6.43;5.15;;;;;;;;;;5111642;28;20045;-80
2021/08/21 08:24:33;;;;;;;12.27;8.35;;;;;;;;;;5112228;28;20028;-81
2021/08/21 08:26:58;;;;;;;10.27;7.50;;;;;;;;;;5090021;28;20040;-81
2021/08/21 08:29:23;;;;;;;8.55;6.55;;;;;;;;;;5106416;28;20032;-81
2021/08/21 08:31:49;;;;;;;7.45;6.05;;;;;;;;;;5107499;28;20448;-81
2021/08/21 08:34:15;;;;;;;10.35;5.97;;;;;;;;;;5088803;28;20055;-81
2021/08/21 08:36:40;;;;;;;6.97;5.60;;;;;;;;;;5090431;28;20032;-81
2021/08/21 08:39:05;;;;;;;6.10;5.50;;;;;;;;;;5106854;28;20099;-82
2021/08/21 08:41:31;;;;;;;8.25;6.47;;;;;;;;;;5089976;28;20028;-81
2021/08/21 08:43:58;;;;;;;7.50;5.68;;;;;;;;;;5089368;28;20089;-81
2021/08/21 08:46:23;;;;;;;10.57;6.60;;;;;;;;;;5104974;28;20040;-81
2021/08/21 08:48:49;;;;;;;11.95;6.15;;;;;;;;;;5104571;28;20085;-81
2021/08/21 08:51:15;;;;;;;8.55;6.45;;;;;;;;;;5088314;28;20389;-81
2021/08/21 08:53:42;;;;;;;11.25;5.68;;;;;;;;;;5088550;28;20024;-82
2021/08/21 08:56:08;;;;;;;8.80;6.18;;;;;;;;;;5106251;28;20052;-82
2021/08/21 08:58:34;;;;;;;12.63;7.45;;;;;;;;;;5105347;28;20054;-81
2021/08/21 09:00:59;;;;;;;9.27;6.15;;;;;;;;;;5105718;28;20043;-82
2021/08/21 09:03:27;;;;;;;7.38;6.32;;;;;;;;;;5104592;28;20478;-81
2021/08/21 09:05:54;;;;;;;9.95;6.28;;;;;;;;;;5105744;28;20099;-82
2021/08/21 09:08:27;;;;;;;6.47;5.78;;;;;;;;;;5087113;28;20040;-81
2021/08/21 09:10:54;;;;;;;7.35;5.90;;;;;;;;;;5087396;28;20490;-82
2021/08/21 09:13:20;;;;;;;6.70;5.25;;;;;;;;;;5103842;28;20482;-81
2021/08/21 09:15:51;;;;;;;6.18;4.95;;;;;;;;;;5104042;28;20039;-81
2021/08/21 09:18:30;;;;;;;6.55;4.82;;;;;;;;;;5081304;28;20429;-81
2021/08/21 09:21:02;;;;;;;10.57;6.70;;;;;;;;;;5082890;28;20032;-81
2021/08/21 09:23:30;;;;;;;10.88;6.45;;;;;;;;;;5083393;28;20041;-81
2021/08/21 09:26:30;;;;;;;9.77;6.28;;;;;;;;;;5064912;28;20185;-82
2021/08/21 09:28:58;;;;;;;9.35;6.55;;;;;;;;;;5067302;28;20079;-81
2021/08/21 09:31:28;;;;;;;6.80;5.97;;;;;;;;;;5084648;28;20032;-82
2021/08/21 09:33:59;;;;;;;8.25;5.68;;;;;;;;;;5068991;28;20051;-82
2021/08/21 09:36:31;;;;;;;9.38;6.72;;;;;;;;;;5071333;28;20036;-82
2021/08/21 09:38:58;;;;;;;8.65;6.55;;;;;;;;;;5073095;28;20392;-82
2021/08/21 09:41:24;;;;;;;13.05;7.72;;;;;;;;;;5073449;28;20032;-82
2021/08/21 09:44:02;;;;;;;6.78;5.88;;;;;;;;;;5073838;28;20085;-82
2021/08/21 09:46:28;;;;;;;10.48;6.50;;;;;;;;;;5073118;28;20071;-82
2021/08/21 09:49:04;;;;;;;7.20;5.80;;;;;;;;;;5072846;28;20032;-82
2021/08/21 09:51:36;;;;;;;7.82;5.68;;;;;;;;;;5072369;28;20115;-82
2021/08/21 09:54:04;;;;;;;7.68;5.72;;;;;;;;;;5071532;28;20056;-82
2021/08/21 09:56:33;;;;;;;9.05;6.70;;;;;;;;;;5071743;28;20036;-83
2021/08/21 09:59:01;;;;;;;6.93;4.38;;;;;;;;;;5072371;28;20032;-82
2021/08/21 10:01:29;;;;;;;6.10;4.03;;;;;;;;;;5071687;28;20035;-82
2021/08/21 10:03:56;;;;;;;17.15;6.32;;;;;;;;;;5088896;28;20045;-82
2021/08/21 10:06:22;;;;;;;6.15;4.80;;;;;;;;;;5072114;28;20028;-82
2021/08/21 10:08:49;;;;;;;5.57;3.60;;;;;;;;;;5072044;28;20040;-83
2021/08/21 10:11:16;;;;;;;5.30;3.83;;;;;;;;;;5070862;28;20486;-82
2021/08/21 10:13:42;;;;;;;5.85;3.85;;;;;;;;;;5087459;28;20040;-83
2021/08/21 10:16:09;;;;;;;6.55;4.18;;;;;;;;;;5069374;28;20029;-82
2021/08/21 10:18:35;;;;;;;5.07;3.42;;;;;;;;;;5073556;28;20028;-82
2021/08/21 10:21:01;;;;;;;7.50;4.03;;;;;;;;;;5074724;28;20394;-83
2021/08/21 10:23:27;;;;;;;7.28;3.88;;;;;;;;;;5086239;28;20032;-83
2021/08/21 10:26:04;;;;;;;7.90;3.92;;;;;;;;;;5091892;28;20036;-82
2021/08/21 10:28:38;;;;;;;5.35;3.80;;;;;;;;;;5091323;28;20041;-82
2021/08/21 10:31:04;;;;;;;4.10;3.10;;;;;;;;;;5091040;28;20028;-82
2021/08/21 10:33:31;;;;;;;14.60;5.50;;;;;;;;;;5072590;28;20035;-81
2021/08/21 10:35:57;;;;;;;6.38;3.35;;;;;;;;;;5073606;28;20093;-82
2021/08/21 10:38:28;;;;;;;6.05;3.17;;;;;;;;;;5071809;28;20032;-81
2021/08/21 10:40:55;;;;;;;6.68;3.13;;;;;;;;;;5071667;28;20111;-81
2021/08/21 10:43:43;;;;;;;5.20;2.85;;;;;;;;;;5070867;28;20104;-82
2021/08/21 10:46:10;;;;;;;6.22;3.15;;;;;;;;;;5071336;28;20041;-81
2021/08/21 10:48:36;;;;;;;5.80;3.63;;;;;;;;;;5118911;28;20035;-82
2021/08/21 10:51:21;;;;;;;5.82;2.83;;;;;;;;;;5111427;28;20099;-82
2021/08/21 10:53:46;;;;;;;8.80;5.47;;;;;;;;;;5110647;28;20040;-82
2021/08/21 10:56:35;;;;;;;10.90;5.07;;;;;;;;;;5128364;28;20027;-82
2021/08/21 10:59:00;;;;;;;8.80;4.40;;;;;;;;;;5110686;28;20039;-83
2021/08/21 11:01:26;;;;;;;3.60;2.47;;;;;;;;;;5110588;28;20090;-82
2021/08/21 11:03:52;;;;;;;3.53;2.22;;;;;;;;;;5089627;28;20134;-82
2021/08/21 11:06:29;;;;;;;3.90;2.40;;;;;;;;;;5088916;28;20040;-82
2021/08/21 11:08:57;;;;;;;3.70;2.30;;;;;;;;;;5089297;28;20077;-82
2021/08/21 11:11:36;;;;;;;4.82;2.47;;;;;;;;;;5106430;28;20028;-82
2021/08/21 11:14:24;;;;;;;3.88;2.30;;;;;;;;;;5090076;28;20058;-82
2021/08/21 11:16:55;;;;;;;3.85;2.70;;;;;;;;;;5105813;28;20035;-82
2021/08/21 11:19:37;;;;;;;3.05;1.77;;;;;;;;;;5088149;28;20066;-82
2021/08/21 11:22:09;;;;;;;3.25;2.08;;;;;;;;;;5106054;28;20032;-82
2021/08/21 11:24:35;;;;;;;2.70;1.90;;;;;;;;;;5086353;28;20414;-80
2021/08/21 11:27:30;;;;;;;3.10;2.00;;;;;;;;;;5101953;28;20040;-81
2021/08/21 11:30:11;;;;;;;6.40;2.10;;;;;;;;;;5099362;28;20036;-81
2021/08/21 11:33:07;;;;;;;3.67;2.00;;;;;;;;;;5088164;28;20035;-81
2021/08/21 11:35:53;;;;;;;4.45;2.10;;;;;;;;;;5086018;28;20048;-79
2021/08/21 11:38:28;;;;;;;7.35;2.10;;;;;;;;;;5091279;28;20043;-79
2021/08/21 11:40:55;;;;;;;4.07;1.90;;;;;;;;;;5108237;28;20044;-79
2021/08/21 11:43:26;;;;;;;5.35;1.83;;;;;;;;;;5109872;28;20060;-81
2021/08/21 11:45:52;;;;;;;4.45;1.80;;;;;;;;;;5104693;28;20059;-81
2021/08/21 11:48:19;;;;;;;2.13;1.85;;;;;;;;;;5082821;28;20515;-80
2021/08/21 11:50:47;;;;;;;4.38;1.92;;;;;;;;;;5078430;28;20142;-77
2021/08/21 11:53:24;;;;;;;5.93;1.95;;;;;;;;;;5077282;28;20024;-78
2021/08/21 11:55:54;;;;;;;9.48;3.92;;;;;;;;;;5094246;28;20547;-78
2021/08/21 11:58:31;;;;;;;3.38;2.08;;;;;;;;;;5097648;28;20116;-78
2021/08/21 12:01:03;;;;;;;2.13;1.67;;;;;;;;;;5095097;28;20035;-77
2021/08/21 12:06:37;;;;;;;9.38;2.50;;;;;;;;;;5098547;28;20043;-78
2021/08/21 12:09:10;;;;;;;5.75;2.35;;;;;;;;;;5097283;28;20043;-78
2021/08/21 12:11:38;;;;;;;6.28;2.03;;;;;;;;;;5096785;28;20038;-78
2021/08/21 12:14:04;;;;;;;4.15;2.00;;;;;;;;;;5078583;28;20040;-78
2021/08/21 12:16:32;;;;;;;5.88;4.32;;;;;;;;;;5078993;28;20088;-80
2021/08/21 12:18:58;;;;;;;2.72;2.10;;;;;;;;;;5094130;28;20039;-77
2021/08/21 12:21:24;;;;;;;5.90;2.08;;;;;;;;;;5095321;28;20036;-79
2021/08/21 12:23:52;;;;;;;4.72;2.10;;;;;;;;;;5082203;28;20086;-82
2021/08/21 12:26:36;;;;;;;3.30;2.10;;;;;;;;;;5097898;28;20054;-82
2021/08/21 12:29:04;;;;;;;3.58;2.00;;;;;;;;;;5082121;28;20114;-81
2021/08/21 12:31:37;;;;;;;9.27;6.20;;;;;;;;;;5080686;28;20036;-82
2021/08/21 12:34:05;;;;;;;3.60;2.30;;;;;;;;;;5096862;28;20051;-83
2021/08/21 12:36:38;;;;;;;3.42;2.17;;;;;;;;;;5080226;28;20093;-83
2021/08/21 12:39:06;;;;;;;4.40;1.90;;;;;;;;;;5098562;28;20035;-78
2021/08/21 12:41:56;;;;;;;3.33;2.10;;;;;;;;;;5083043;28;20042;-78
2021/08/21 12:44:33;;;;;;;1.88;1.70;;;;;;;;;;5078538;28;20032;-77
2021/08/21 12:47:01;;;;;;;3.03;2.22;;;;;;;;;;5097277;28;20699;-78
2021/08/21 12:49:34;;;;;;;2.53;1.80;;;;;;;;;;5077915;28;20032;-78
2021/08/21 12:52:02;;;;;;;3.15;1.92;;;;;;;;;;5078634;28;20131;-78
2021/08/21 12:54:30;;;;;;;2.83;2.45;;;;;;;;;;5088003;28;20035;-78
2021/08/21 12:57:14;;;;;;;3.17;2.30;;;;;;;;;;5115765;28;20035;-78
2021/08/21 12:59:40;;;;;;;2.67;2.08;;;;;;;;;;5114232;28;20120;-78
2021/08/21 13:02:08;;;;;;;4.45;2.42;;;;;;;;;;5115361;28;20104;-78
2021/08/21 13:04:34;;;;;;;3.42;1.98;;;;;;;;;;5115878;28;20042;-78
2021/08/21 13:07:04;;;;;;;3.70;1.95;;;;;;;;;;5116252;28;20035;-79
2021/08/21 13:09:30;;;;;;;6.80;2.38;;;;;;;;;;5115756;28;20031;-79
2021/08/21 13:11:56;;;;;;;2.60;2.00;;;;;;;;;;5118498;28;20057;-78
2021/08/21 13:14:22;;;;;;;1.92;1.83;;;;;;;;;;5101034;28;20032;-78
2021/08/21 13:16:48;;;;;;;3.33;1.90;;;;;;;;;;5117537;28;20042;-77
2021/08/21 13:19:13;;;;;;;2.53;1.75;;;;;;;;;;5119033;28;20039;-78
2021/08/21 13:21:39;;;;;;;3.53;2.20;;;;;;;;;;5100938;28;20058;-78
2021/08/21 13:24:05;;;;;;;3.13;1.70;;;;;;;;;;5105067;28;20057;-78
2021/08/21 13:26:34;;;;;;;2.22;1.80;;;;;;;;;;5080456;28;20062;-77
2021/08/21 13:29:00;;;;;;;2.17;1.70;;;;;;;;;;5099091;28;20369;-77
2021/08/21 13:31:26;;;;;;;3.17;2.08;;;;;;;;;;5095779;28;20039;-77
2021/08/21 13:33:51;;;;;;;3.10;1.90;;;;;;;;;;5098450;28;20051;-78
2021/08/21 13:36:17;;;;;;;4.72;2.00;;;;;;;;;;5079734;28;20036;-77
2021/08/21 13:38:42;;;;;;;3.03;1.80;;;;;;;;;;5096901;28;20027;-78
2021/08/21 13:41:07;;;;;;;3.20;1.70;;;;;;;;;;5097618;28;20032;-78
2021/08/21 13:43:33;;;;;;;1.85;1.60;;;;;;;;;;5096750;28;20032;-78
2021/08/21 13:45:58;;;;;;;2.20;1.38;;;;;;;;;;5098872;28;20032;-78
2021/08/21 13:48:23;;;;;;;3.55;1.70;;;;;;;;;;5095310;28;20059;-77
2021/08/21 13:50:49;;;;;;;6.80;2.20;;;;;;;;;;5096016;28;20062;-77
2021/08/21 13:53:14;;;;;;;3.30;1.73;;;;;;;;;;5097560;28;20038;-77
2021/08/21 13:55:40;;;;;;;2.55;1.70;;;;;;;;;;5095887;28;20397;-77
2021/08/21 13:58:06;;;;;;;2.75;1.80;;;;;;;;;;5078142;28;20377;-77
2021/08/21 14:00:31;;;;;;;4.47;2.03;;;;;;;;;;5096516;28;20032;-78
2021/08/21 14:02:57;;;;;;;3.70;2.10;;;;;;;;;;5095228;28;20040;-77
2021/08/21 14:05:22;;;;;;;4.50;1.92;;;;;;;;;;5096181;28;20439;-78
2021/08/21 14:07:48;;;;;;;5.50;1.70;;;;;;;;;;5096029;28;20119;-77
2021/08/21 14:10:13;;;;;;;2.47;1.55;;;;;;;;;;5096263;28;20461;-77
2021/08/21 14:12:40;;;;;;;2.90;1.65;;;;;;;;;;5099588;28;20039;-80
2021/08/21 14:15:07;;;;;;;6.97;1.75;;;;;;;;;;5100998;28;20039;-80
2021/08/21 14:17:33;;;;;;;3.35;1.50;;;;;;;;;;5101195;28;20047;-80
2021/08/21 14:20:00;;;;;;;5.22;1.40;;;;;;;;;;5081944;28;20032;-80
2021/08/21 14:22:26;;;;;;;2.13;1.52;;;;;;;;;;5080399;28;20040;-80
2021/08/21 14:24:52;;;;;;;2.40;1.48;;;;;;;;;;5081067;28;20049;-80
2021/08/21 14:27:17;;;;;;;3.67;1.63;;;;;;;;;;5081138;28;20111;-80
2021/08/21 14:29:42;;;;;;;1.48;1.38;;;;;;;;;;5081591;28;20135;-80
2021/08/21 14:32:08;;;;;;;3.22;1.50;;;;;;;;;;5063870;28;20530;-80
2021/08/21 14:34:33;;;;;;;3.28;1.55;;;;;;;;;;5081924;28;20120;-79
2021/08/21 14:36:59;;;;;;;5.82;1.63;;;;;;;;;;5080456;28;20040;-80
2021/08/21 14:39:24;;;;;;;1.40;1.30;;;;;;;;;;5062291;28;20093;-79
2021/08/21 14:41:50;;;;;;;2.88;1.40;;;;;;;;;;5078948;28;20047;-79
2021/08/21 14:44:15;;;;;;;4.75;1.35;;;;;;;;;;5066944;28;20037;-80
2021/08/21 14:46:40;;;;;;;4.80;1.65;;;;;;;;;;5067898;28;20037;-79